Hunter, Oklahoma
Current Conditions -  °F | °C
As of 8:50 AM on Thursday 30 Oct 2014 (Local Time) from KWDG Reporting Station
Scattered Clouds Scattered Clouds  
Wind Chill: 50°   Ceiling: Unl
Heat Index: 50°   Visibility: 10mi
Dew Point: 43°   Wind: 0mph
Humidity: 76%   Direction: NA
Pressure: 30.13"   Gusts: NA
Location:  36.56°N, 97.66°W
Report Text: KWDG 301350Z 00000KT 10SM SCT130 10/06 A3013
Loading
Personal Weather Stations






























Interactive Weather Map
Tropical Storm Tracking
New forecast layout! Learn more

10-Day Weather Forecast

Advertisements
Track Severe Weather on mobile